sensor_id;sensor_type;location;lat;lon;timestamp;P1;durP1;ratioP1;P2;durP2;ratioP2
77872;SDS011;67068;52.116;4.440;2023-03-01T00:01:16;6.95;;;2.03;;
77872;SDS011;67068;52.116;4.440;2023-03-01T00:03:42;8.18;;;2.22;;
77872;SDS011;67068;52.116;4.440;2023-03-01T00:06:07;7.80;;;2.45;;
77872;SDS011;67068;52.116;4.440;2023-03-01T00:08:32;8.73;;;2.50;;
77872;SDS011;67068;52.116;4.440;2023-03-01T00:13:42;7.57;;;2.33;;
77872;SDS011;67068;52.116;4.440;2023-03-01T00:16:08;7.45;;;2.00;;
77872;SDS011;67068;52.116;4.440;2023-03-01T00:18:34;7.55;;;2.05;;
77872;SDS011;67068;52.116;4.440;2023-03-01T00:20:59;9.07;;;2.10;;
77872;SDS011;67068;52.116;4.440;2023-03-01T00:23:24;7.90;;;2.10;;
77872;SDS011;67068;52.116;4.440;2023-03-01T00:25:50;6.73;;;1.90;;
77872;SDS011;67068;52.116;4.440;2023-03-01T00:28:15;6.25;;;1.77;;
77872;SDS011;67068;52.116;4.440;2023-03-01T00:30:41;7.78;;;1.95;;
77872;SDS011;67068;52.116;4.440;2023-03-01T00:33:06;6.30;;;1.93;;
77872;SDS011;67068;52.116;4.440;2023-03-01T00:35:32;6.17;;;1.90;;
77872;SDS011;67068;52.116;4.440;2023-03-01T00:37:57;8.15;;;2.40;;
77872;SDS011;67068;52.116;4.440;2023-03-01T00:40:26;6.75;;;2.15;;
77872;SDS011;67068;52.116;4.440;2023-03-01T00:42:51;7.93;;;2.40;;
77872;SDS011;67068;52.116;4.440;2023-03-01T00:45:17;6.77;;;2.07;;
77872;SDS011;67068;52.116;4.440;2023-03-01T00:47:42;8.07;;;2.10;;
77872;SDS011;67068;52.116;4.440;2023-03-01T00:50:07;4.93;;;1.60;;
77872;SDS011;67068;52.116;4.440;2023-03-01T00:52:33;7.18;;;1.92;;
77872;SDS011;67068;52.116;4.440;2023-03-01T00:54:58;7.83;;;2.13;;
77872;SDS011;67068;52.116;4.440;2023-03-01T00:57:23;7.30;;;1.80;;
77872;SDS011;67068;52.116;4.440;2023-03-01T00:59:48;5.80;;;1.80;;
77872;SDS011;67068;52.116;4.440;2023-03-01T01:02:14;4.53;;;1.40;;
77872;SDS011;67068;52.116;4.440;2023-03-01T01:04:39;6.97;;;2.00;;
77872;SDS011;67068;52.116;4.440;2023-03-01T01:07:04;5.97;;;1.67;;
77872;SDS011;67068;52.116;4.440;2023-03-01T01:09:30;6.20;;;1.83;;
77872;SDS011;67068;52.116;4.440;2023-03-01T01:11:55;6.82;;;2.03;;
77872;SDS011;67068;52.116;4.440;2023-03-01T01:14:21;7.30;;;2.07;;
77872;SDS011;67068;52.116;4.440;2023-03-01T01:16:46;6.93;;;2.07;;
77872;SDS011;67068;52.116;4.440;2023-03-01T01:19:12;7.10;;;1.85;;
77872;SDS011;67068;52.116;4.440;2023-03-01T01:21:38;6.63;;;1.98;;
77872;SDS011;67068;52.116;4.440;2023-03-01T01:24:03;7.43;;;1.80;;
77872;SDS011;67068;52.116;4.440;2023-03-01T01:26:30;5.80;;;1.92;;
77872;SDS011;67068;52.116;4.440;2023-03-01T01:28:55;7.15;;;2.17;;
77872;SDS011;67068;52.116;4.440;2023-03-01T01:31:21;7.55;;;2.15;;
77872;SDS011;67068;52.116;4.440;2023-03-01T01:33:48;5.93;;;1.88;;
77872;SDS011;67068;52.116;4.440;2023-03-01T01:36:13;6.40;;;1.77;;
77872;SDS011;67068;52.116;4.440;2023-03-01T01:38:39;4.97;;;1.83;;
77872;SDS011;67068;52.116;4.440;2023-03-01T01:41:04;5.85;;;1.90;;
77872;SDS011;67068;52.116;4.440;2023-03-01T01:43:32;6.47;;;2.03;;
77872;SDS011;67068;52.116;4.440;2023-03-01T01:45:59;6.10;;;1.88;;
77872;SDS011;67068;52.116;4.440;2023-03-01T01:48:27;7.03;;;1.92;;
77872;SDS011;67068;52.116;4.440;2023-03-01T01:51:05;7.07;;;2.10;;
77872;SDS011;67068;52.116;4.440;2023-03-01T01:53:32;5.13;;;1.50;;
77872;SDS011;67068;52.116;4.440;2023-03-01T01:55:58;6.13;;;1.77;;
77872;SDS011;67068;52.116;4.440;2023-03-01T01:58:24;5.65;;;1.80;;
77872;SDS011;67068;52.116;4.440;2023-03-01T02:00:52;7.38;;;2.17;;
77872;SDS011;67068;52.116;4.440;2023-03-01T02:03:18;6.68;;;2.20;;
77872;SDS011;67068;52.116;4.440;2023-03-01T02:05:47;6.78;;;1.90;;
77872;SDS011;67068;52.116;4.440;2023-03-01T02:08:13;6.28;;;1.73;;
77872;SDS011;67068;52.116;4.440;2023-03-01T02:10:39;5.57;;;1.70;;
77872;SDS011;67068;52.116;4.440;2023-03-01T02:13:05;5.57;;;1.63;;
77872;SDS011;67068;52.116;4.440;2023-03-01T02:15:32;6.70;;;1.92;;
77872;SDS011;67068;52.116;4.440;2023-03-01T02:17:57;6.88;;;1.90;;
77872;SDS011;67068;52.116;4.440;2023-03-01T02:22:51;6.82;;;1.65;;
77872;SDS011;67068;52.116;4.440;2023-03-01T02:30:29;5.78;;;1.83;;
77872;SDS011;67068;52.116;4.440;2023-03-01T02:32:55;6.32;;;1.60;;
77872;SDS011;67068;52.116;4.440;2023-03-01T02:35:27;5.90;;;2.03;;
77872;SDS011;67068;52.116;4.440;2023-03-01T02:37:53;5.82;;;2.05;;
77872;SDS011;67068;52.116;4.440;2023-03-01T02:40:22;5.97;;;2.15;;
77872;SDS011;67068;52.116;4.440;2023-03-01T02:42:51;6.82;;;2.22;;
77872;SDS011;67068;52.116;4.440;2023-03-01T02:45:18;5.10;;;1.80;;
77872;SDS011;67068;52.116;4.440;2023-03-01T02:47:44;6.63;;;2.10;;
77872;SDS011;67068;52.116;4.440;2023-03-01T02:50:15;5.47;;;1.60;;
77872;SDS011;67068;52.116;4.440;2023-03-01T02:55:21;4.80;;;1.58;;
77872;SDS011;67068;52.116;4.440;2023-03-01T02:57:46;5.90;;;1.70;;
77872;SDS011;67068;52.116;4.440;2023-03-01T03:02:47;5.32;;;1.63;;
77872;SDS011;67068;52.116;4.440;2023-03-01T03:05:17;6.03;;;2.20;;
77872;SDS011;67068;52.116;4.440;2023-03-01T03:07:43;5.72;;;1.70;;
77872;SDS011;67068;52.116;4.440;2023-03-01T03:10:10;7.65;;;2.25;;
77872;SDS011;67068;52.116;4.440;2023-03-01T03:12:36;5.97;;;1.65;;
77872;SDS011;67068;52.116;4.440;2023-03-01T03:15:03;5.38;;;1.60;;
77872;SDS011;67068;52.116;4.440;2023-03-01T03:17:33;5.60;;;1.77;;
77872;SDS011;67068;52.116;4.440;2023-03-01T03:19:58;6.32;;;1.92;;
77872;SDS011;67068;52.116;4.440;2023-03-01T03:22:24;6.03;;;1.70;;
77872;SDS011;67068;52.116;4.440;2023-03-01T03:24:49;6.03;;;1.90;;
77872;SDS011;67068;52.116;4.440;2023-03-01T03:27:14;6.57;;;1.77;;
77872;SDS011;67068;52.116;4.440;2023-03-01T03:29:39;7.10;;;1.97;;
77872;SDS011;67068;52.116;4.440;2023-03-01T03:32:04;6.93;;;1.97;;
77872;SDS011;67068;52.116;4.440;2023-03-01T03:34:30;5.93;;;1.80;;
77872;SDS011;67068;52.116;4.440;2023-03-01T03:36:55;5.53;;;1.70;;
77872;SDS011;67068;52.116;4.440;2023-03-01T03:39:27;4.95;;;1.40;;
77872;SDS011;67068;52.116;4.440;2023-03-01T03:41:53;5.35;;;1.55;;
77872;SDS011;67068;52.116;4.440;2023-03-01T03:44:18;5.78;;;1.75;;
77872;SDS011;67068;52.116;4.440;2023-03-01T03:46:44;5.55;;;1.63;;
77872;SDS011;67068;52.116;4.440;2023-03-01T03:49:09;5.40;;;1.58;;
77872;SDS011;67068;52.116;4.440;2023-03-01T03:51:34;5.23;;;1.77;;
77872;SDS011;67068;52.116;4.440;2023-03-01T03:53:59;5.50;;;1.60;;
77872;SDS011;67068;52.116;4.440;2023-03-01T03:56:25;6.73;;;1.63;;
77872;SDS011;67068;52.116;4.440;2023-03-01T03:58:51;5.18;;;1.70;;
77872;SDS011;67068;52.116;4.440;2023-03-01T04:01:16;5.80;;;1.60;;
77872;SDS011;67068;52.116;4.440;2023-03-01T04:03:41;6.63;;;1.77;;
77872;SDS011;67068;52.116;4.440;2023-03-01T04:06:11;6.00;;;1.52;;
77872;SDS011;67068;52.116;4.440;2023-03-01T04:08:36;6.22;;;1.95;;
77872;SDS011;67068;52.116;4.440;2023-03-01T04:11:02;5.27;;;1.67;;
77872;SDS011;67068;52.116;4.440;2023-03-01T04:13:48;5.40;;;1.60;;
77872;SDS011;67068;52.116;4.440;2023-03-01T04:16:13;6.13;;;1.80;;
77872;SDS011;67068;52.116;4.440;2023-03-01T04:18:39;6.87;;;1.73;;
77872;SDS011;67068;52.116;4.440;2023-03-01T04:21:04;5.27;;;1.60;;
77872;SDS011;67068;52.116;4.440;2023-03-01T04:23:29;5.25;;;1.75;;
77872;SDS011;67068;52.116;4.440;2023-03-01T04:25:55;5.43;;;1.90;;
77872;SDS011;67068;52.116;4.440;2023-03-01T04:28:27;5.20;;;1.42;;
77872;SDS011;67068;52.116;4.440;2023-03-01T04:30:53;4.65;;;1.60;;
77872;SDS011;67068;52.116;4.440;2023-03-01T04:33:18;5.88;;;1.70;;
77872;SDS011;67068;52.116;4.440;2023-03-01T04:35:43;6.27;;;1.83;;
77872;SDS011;67068;52.116;4.440;2023-03-01T04:38:09;5.30;;;1.73;;
77872;SDS011;67068;52.116;4.440;2023-03-01T04:40:34;5.90;;;1.50;;
77872;SDS011;67068;52.116;4.440;2023-03-01T04:43:00;7.32;;;1.85;;
77872;SDS011;67068;52.116;4.440;2023-03-01T04:45:25;6.07;;;2.00;;
77872;SDS011;67068;52.116;4.440;2023-03-01T04:47:50;5.87;;;1.80;;
77872;SDS011;67068;52.116;4.440;2023-03-01T04:50:17;5.00;;;1.70;;
77872;SDS011;67068;52.116;4.440;2023-03-01T04:52:45;5.88;;;1.60;;
77872;SDS011;67068;52.116;4.440;2023-03-01T04:55:10;5.70;;;1.70;;
77872;SDS011;67068;52.116;4.440;2023-03-01T04:57:36;6.13;;;1.70;;
77872;SDS011;67068;52.116;4.440;2023-03-01T05:00:02;5.70;;;1.92;;
77872;SDS011;67068;52.116;4.440;2023-03-01T05:02:44;5.72;;;1.70;;
77872;SDS011;67068;52.116;4.440;2023-03-01T05:05:09;5.40;;;1.67;;
77872;SDS011;67068;52.116;4.440;2023-03-01T05:07:35;6.23;;;1.60;;
77872;SDS011;67068;52.116;4.440;2023-03-01T05:10:00;5.87;;;1.60;;
77872;SDS011;67068;52.116;4.440;2023-03-01T05:12:25;5.50;;;1.57;;
77872;SDS011;67068;52.116;4.440;2023-03-01T05:14:50;5.80;;;1.80;;
77872;SDS011;67068;52.116;4.440;2023-03-01T05:17:16;6.30;;;1.67;;
77872;SDS011;67068;52.116;4.440;2023-03-01T05:19:41;5.07;;;1.60;;
77872;SDS011;67068;52.116;4.440;2023-03-01T05:22:07;5.65;;;1.42;;
77872;SDS011;67068;52.116;4.440;2023-03-01T05:24:33;5.40;;;1.73;;
77872;SDS011;67068;52.116;4.440;2023-03-01T05:26:59;4.78;;;1.63;;
77872;SDS011;67068;52.116;4.440;2023-03-01T05:29:24;6.27;;;1.57;;
77872;SDS011;67068;52.116;4.440;2023-03-01T05:31:51;5.00;;;1.63;;
77872;SDS011;67068;52.116;4.440;2023-03-01T05:34:17;5.68;;;1.65;;
77872;SDS011;67068;52.116;4.440;2023-03-01T05:36:42;6.33;;;1.80;;
77872;SDS011;67068;52.116;4.440;2023-03-01T05:39:07;6.40;;;1.97;;
77872;SDS011;67068;52.116;4.440;2023-03-01T05:41:32;5.50;;;1.67;;
77872;SDS011;67068;52.116;4.440;2023-03-01T05:43:57;7.20;;;1.80;;
77872;SDS011;67068;52.116;4.440;2023-03-01T05:46:23;6.13;;;1.90;;
77872;SDS011;67068;52.116;4.440;2023-03-01T05:48:49;6.75;;;1.73;;
77872;SDS011;67068;52.116;4.440;2023-03-01T05:51:14;5.70;;;1.77;;
77872;SDS011;67068;52.116;4.440;2023-03-01T05:53:39;7.03;;;1.73;;
77872;SDS011;67068;52.116;4.440;2023-03-01T05:56:05;6.70;;;1.80;;
77872;SDS011;67068;52.116;4.440;2023-03-01T05:58:31;6.85;;;1.80;;
77872;SDS011;67068;52.116;4.440;2023-03-01T06:00:56;6.53;;;1.90;;
77872;SDS011;67068;52.116;4.440;2023-03-01T06:03:21;5.20;;;1.60;;
77872;SDS011;67068;52.116;4.440;2023-03-01T06:05:46;6.60;;;1.80;;
77872;SDS011;67068;52.116;4.440;2023-03-01T06:08:12;6.07;;;1.70;;
77872;SDS011;67068;52.116;4.440;2023-03-01T06:10:37;5.25;;;1.73;;
77872;SDS011;67068;52.116;4.440;2023-03-01T06:13:02;5.57;;;1.60;;
77872;SDS011;67068;52.116;4.440;2023-03-01T06:15:28;5.45;;;1.40;;
77872;SDS011;67068;52.116;4.440;2023-03-01T06:17:53;5.07;;;1.50;;
77872;SDS011;67068;52.116;4.440;2023-03-01T06:20:21;5.80;;;1.58;;
77872;SDS011;67068;52.116;4.440;2023-03-01T06:22:47;6.13;;;1.60;;
77872;SDS011;67068;52.116;4.440;2023-03-01T06:25:13;5.38;;;1.70;;
77872;SDS011;67068;52.116;4.440;2023-03-01T06:27:39;5.18;;;1.70;;
77872;SDS011;67068;52.116;4.440;2023-03-01T06:30:05;4.60;;;1.70;;
77872;SDS011;67068;52.116;4.440;2023-03-01T06:32:30;5.40;;;1.60;;
77872;SDS011;67068;52.116;4.440;2023-03-01T06:34:56;4.72;;;1.77;;
77872;SDS011;67068;52.116;4.440;2023-03-01T06:37:23;4.90;;;1.63;;
77872;SDS011;67068;52.116;4.440;2023-03-01T06:39:48;6.60;;;1.87;;
77872;SDS011;67068;52.116;4.440;2023-03-01T06:42:14;4.30;;;1.38;;
77872;SDS011;67068;52.116;4.440;2023-03-01T06:44:39;6.90;;;1.73;;
77872;SDS011;67068;52.116;4.440;2023-03-01T06:47:04;5.70;;;1.70;;
77872;SDS011;67068;52.116;4.440;2023-03-01T06:49:29;5.40;;;1.83;;
77872;SDS011;67068;52.116;4.440;2023-03-01T06:51:55;5.53;;;1.90;;
77872;SDS011;67068;52.116;4.440;2023-03-01T06:54:20;6.18;;;1.83;;
77872;SDS011;67068;52.116;4.440;2023-03-01T06:56:47;5.85;;;1.58;;
77872;SDS011;67068;52.116;4.440;2023-03-01T06:59:13;6.43;;;1.98;;
77872;SDS011;67068;52.116;4.440;2023-03-01T07:01:38;6.60;;;1.83;;
77872;SDS011;67068;52.116;4.440;2023-03-01T07:04:04;7.40;;;1.77;;
77872;SDS011;67068;52.116;4.440;2023-03-01T07:06:29;5.03;;;1.60;;
77872;SDS011;67068;52.116;4.440;2023-03-01T07:08:54;5.57;;;1.48;;
77872;SDS011;67068;52.116;4.440;2023-03-01T07:11:20;6.03;;;1.60;;
77872;SDS011;67068;52.116;4.440;2023-03-01T07:13:45;5.07;;;1.70;;
77872;SDS011;67068;52.116;4.440;2023-03-01T07:16:10;6.60;;;2.10;;
77872;SDS011;67068;52.116;4.440;2023-03-01T07:18:35;5.97;;;1.53;;
77872;SDS011;67068;52.116;4.440;2023-03-01T07:21:07;5.43;;;1.60;;
77872;SDS011;67068;52.116;4.440;2023-03-01T07:23:33;5.68;;;1.77;;
77872;SDS011;67068;52.116;4.440;2023-03-01T07:25:58;6.82;;;2.00;;
77872;SDS011;67068;52.116;4.440;2023-03-01T07:28:24;6.18;;;1.67;;
77872;SDS011;67068;52.116;4.440;2023-03-01T07:30:49;5.03;;;1.55;;
77872;SDS011;67068;52.116;4.440;2023-03-01T07:33:14;5.97;;;1.80;;
77872;SDS011;67068;52.116;4.440;2023-03-01T07:35:40;7.13;;;1.90;;
77872;SDS011;67068;52.116;4.440;2023-03-01T07:38:05;6.60;;;1.83;;
77872;SDS011;67068;52.116;4.440;2023-03-01T07:40:30;6.03;;;2.00;;
77872;SDS011;67068;52.116;4.440;2023-03-01T07:42:56;7.73;;;2.23;;
77872;SDS011;67068;52.116;4.440;2023-03-01T07:45:21;5.95;;;2.10;;
77872;SDS011;67068;52.116;4.440;2023-03-01T07:47:46;9.20;;;2.43;;
77872;SDS011;67068;52.116;4.440;2023-03-01T07:50:11;6.97;;;2.10;;
77872;SDS011;67068;52.116;4.440;2023-03-01T07:52:38;6.93;;;2.17;;
77872;SDS011;67068;52.116;4.440;2023-03-01T07:55:03;7.23;;;2.27;;
77872;SDS011;67068;52.116;4.440;2023-03-01T07:57:29;7.25;;;2.22;;
77872;SDS011;67068;52.116;4.440;2023-03-01T07:59:54;7.23;;;2.00;;
77872;SDS011;67068;52.116;4.440;2023-03-01T08:02:19;6.17;;;2.03;;
77872;SDS011;67068;52.116;4.440;2023-03-01T08:04:44;6.33;;;2.13;;
77872;SDS011;67068;52.116;4.440;2023-03-01T08:07:09;6.80;;;2.10;;
77872;SDS011;67068;52.116;4.440;2023-03-01T08:09:35;6.27;;;1.80;;
77872;SDS011;67068;52.116;4.440;2023-03-01T08:12:01;7.28;;;1.95;;
77872;SDS011;67068;52.116;4.440;2023-03-01T08:14:26;6.30;;;2.10;;
77872;SDS011;67068;52.116;4.440;2023-03-01T08:16:52;6.40;;;2.30;;
77872;SDS011;67068;52.116;4.440;2023-03-01T08:19:17;5.97;;;2.07;;
77872;SDS011;67068;52.116;4.440;2023-03-01T08:21:42;5.97;;;2.00;;
77872;SDS011;67068;52.116;4.440;2023-03-01T08:24:07;5.70;;;1.80;;
77872;SDS011;67068;52.116;4.440;2023-03-01T08:26:35;6.38;;;2.22;;
77872;SDS011;67068;52.116;4.440;2023-03-01T08:29:00;6.22;;;2.22;;
77872;SDS011;67068;52.116;4.440;2023-03-01T08:31:27;7.15;;;2.30;;
77872;SDS011;67068;52.116;4.440;2023-03-01T08:33:54;7.28;;;2.10;;
77872;SDS011;67068;52.116;4.440;2023-03-01T08:36:24;5.13;;;2.10;;
77872;SDS011;67068;52.116;4.440;2023-03-01T08:38:49;7.25;;;2.20;;
77872;SDS011;67068;52.116;4.440;2023-03-01T08:41:15;6.63;;;2.28;;
77872;SDS011;67068;52.116;4.440;2023-03-01T08:43:40;6.83;;;2.20;;
77872;SDS011;67068;52.116;4.440;2023-03-01T08:46:06;7.30;;;2.17;;
77872;SDS011;67068;52.116;4.440;2023-03-01T08:48:31;7.38;;;2.40;;
77872;SDS011;67068;52.116;4.440;2023-03-01T08:50:56;6.03;;;2.10;;
77872;SDS011;67068;52.116;4.440;2023-03-01T08:53:22;6.30;;;1.90;;
77872;SDS011;67068;52.116;4.440;2023-03-01T08:55:47;6.63;;;2.13;;
77872;SDS011;67068;52.116;4.440;2023-03-01T08:58:12;6.50;;;2.20;;
77872;SDS011;67068;52.116;4.440;2023-03-01T09:00:38;6.20;;;2.30;;
77872;SDS011;67068;52.116;4.440;2023-03-01T09:03:03;5.68;;;1.95;;
77872;SDS011;67068;52.116;4.440;2023-03-01T09:05:31;5.85;;;2.00;;
77872;SDS011;67068;52.116;4.440;2023-03-01T09:07:56;6.43;;;2.15;;
77872;SDS011;67068;52.116;4.440;2023-03-01T09:10:22;6.45;;;2.08;;
77872;SDS011;67068;52.116;4.440;2023-03-01T09:12:47;7.20;;;2.20;;
77872;SDS011;67068;52.116;4.440;2023-03-01T09:15:12;6.47;;;2.10;;
77872;SDS011;67068;52.116;4.440;2023-03-01T09:17:37;7.10;;;2.20;;
77872;SDS011;67068;52.116;4.440;2023-03-01T09:20:03;5.83;;;2.03;;
77872;SDS011;67068;52.116;4.440;2023-03-01T09:22:30;6.55;;;2.63;;
77872;SDS011;67068;52.116;4.440;2023-03-01T09:24:55;6.23;;;2.10;;
77872;SDS011;67068;52.116;4.440;2023-03-01T09:27:23;6.80;;;2.10;;
77872;SDS011;67068;52.116;4.440;2023-03-01T09:29:49;7.32;;;2.10;;
77872;SDS011;67068;52.116;4.440;2023-03-01T09:32:14;6.37;;;2.00;;
77872;SDS011;67068;52.116;4.440;2023-03-01T09:34:40;7.00;;;2.17;;
77872;SDS011;67068;52.116;4.440;2023-03-01T09:37:24;5.85;;;1.98;;
77872;SDS011;67068;52.116;4.440;2023-03-01T09:39:49;7.37;;;1.97;;
77872;SDS011;67068;52.116;4.440;2023-03-01T09:42:14;6.40;;;2.30;;
77872;SDS011;67068;52.116;4.440;2023-03-01T09:44:54;7.00;;;2.20;;
77872;SDS011;67068;52.116;4.440;2023-03-01T09:47:27;7.38;;;2.35;;
77872;SDS011;67068;52.116;4.440;2023-03-01T09:52:37;6.32;;;2.08;;
77872;SDS011;67068;52.116;4.440;2023-03-01T09:55:08;6.65;;;1.98;;
77872;SDS011;67068;52.116;4.440;2023-03-01T09:57:38;6.07;;;2.03;;
77872;SDS011;67068;52.116;4.440;2023-03-01T10:02:45;5.65;;;1.75;;
77872;SDS011;67068;52.116;4.440;2023-03-01T10:10:34;5.55;;;1.95;;
77872;SDS011;67068;52.116;4.440;2023-03-01T10:13:02;7.30;;;2.15;;
77872;SDS011;67068;52.116;4.440;2023-03-01T10:15:35;5.25;;;1.60;;
77872;SDS011;67068;52.116;4.440;2023-03-01T10:18:09;4.05;;;1.40;;
77872;SDS011;67068;52.116;4.440;2023-03-01T10:20:45;6.57;;;2.25;;
77872;SDS011;67068;52.116;4.440;2023-03-01T10:23:11;6.53;;;1.90;;
77872;SDS011;67068;52.116;4.440;2023-03-01T10:30:46;6.13;;;1.60;;
77872;SDS011;67068;52.116;4.440;2023-03-01T10:33:21;6.13;;;1.73;;
77872;SDS011;67068;52.116;4.440;2023-03-01T10:35:48;5.75;;;1.55;;
77872;SDS011;67068;52.116;4.440;2023-03-01T10:38:14;5.00;;;1.58;;
77872;SDS011;67068;52.116;4.440;2023-03-01T10:40:50;4.55;;;1.60;;
77872;SDS011;67068;52.116;4.440;2023-03-01T10:43:15;5.55;;;1.65;;
77872;SDS011;67068;52.116;4.440;2023-03-01T10:45:40;4.43;;;1.53;;
77872;SDS011;67068;52.116;4.440;2023-03-01T10:48:11;5.33;;;1.40;;
77872;SDS011;67068;52.116;4.440;2023-03-01T10:50:38;3.50;;;1.30;;
77872;SDS011;67068;52.116;4.440;2023-03-01T10:53:05;5.18;;;1.60;;
77872;SDS011;67068;52.116;4.440;2023-03-01T10:55:40;3.65;;;1.55;;
77872;SDS011;67068;52.116;4.440;2023-03-01T10:58:15;4.63;;;1.77;;
77872;SDS011;67068;52.116;4.440;2023-03-01T11:00:45;5.55;;;2.00;;
77872;SDS011;67068;52.116;4.440;2023-03-01T11:03:12;5.07;;;1.58;;
77872;SDS011;67068;52.116;4.440;2023-03-01T11:05:50;5.05;;;1.83;;
77872;SDS011;67068;52.116;4.440;2023-03-01T11:08:25;4.22;;;1.48;;
77872;SDS011;67068;52.116;4.440;2023-03-01T11:11:00;5.13;;;1.60;;
77872;SDS011;67068;52.116;4.440;2023-03-01T11:13:28;5.93;;;1.83;;
77872;SDS011;67068;52.116;4.440;2023-03-01T11:16:00;4.90;;;1.33;;
77872;SDS011;67068;52.116;4.440;2023-03-01T11:18:26;3.95;;;1.40;;
77872;SDS011;67068;52.116;4.440;2023-03-01T11:20:51;3.47;;;1.40;;
77872;SDS011;67068;52.116;4.440;2023-03-01T11:23:18;4.43;;;1.35;;
77872;SDS011;67068;52.116;4.440;2023-03-01T11:25:47;4.82;;;1.30;;
77872;SDS011;67068;52.116;4.440;2023-03-01T11:28:14;4.68;;;1.45;;
77872;SDS011;67068;52.116;4.440;2023-03-01T11:38:29;4.57;;;1.52;;
77872;SDS011;67068;52.116;4.440;2023-03-01T11:40:59;5.35;;;1.60;;
77872;SDS011;67068;52.116;4.440;2023-03-01T11:46:36;4.18;;;1.30;;
77872;SDS011;67068;52.116;4.440;2023-03-01T11:51:40;5.97;;;1.65;;
77872;SDS011;67068;52.116;4.440;2023-03-01T11:54:16;5.68;;;1.60;;
77872;SDS011;67068;52.116;4.440;2023-03-01T11:56:45;4.22;;;1.27;;
77872;SDS011;67068;52.116;4.440;2023-03-01T12:01:56;5.80;;;1.85;;
77872;SDS011;67068;52.116;4.440;2023-03-01T12:11:52;4.87;;;1.50;;
77872;SDS011;67068;52.116;4.440;2023-03-01T12:29:43;6.10;;;1.48;;
77872;SDS011;67068;52.116;4.440;2023-03-01T12:40:13;8.43;;;3.53;;
77872;SDS011;67068;52.116;4.440;2023-03-01T12:48:04;9.60;;;3.55;;
77872;SDS011;67068;52.116;4.440;2023-03-01T12:50:40;8.55;;;3.65;;
77872;SDS011;67068;52.116;4.440;2023-03-01T12:53:07;8.80;;;2.88;;
77872;SDS011;67068;52.116;4.440;2023-03-01T12:55:38;7.95;;;2.88;;
77872;SDS011;67068;52.116;4.440;2023-03-01T13:09:04;7.50;;;2.10;;
77872;SDS011;67068;52.116;4.440;2023-03-01T13:11:19;6.38;;;2.03;;
77872;SDS011;67068;52.116;4.440;2023-03-01T13:13:45;7.10;;;1.73;;
77872;SDS011;67068;52.116;4.440;2023-03-01T13:19:17;7.00;;;1.77;;
77872;SDS011;67068;52.116;4.440;2023-03-01T13:21:41;6.97;;;2.13;;
77872;SDS011;67068;52.116;4.440;2023-03-01T13:24:23;6.30;;;1.67;;
77872;SDS011;67068;52.116;4.440;2023-03-01T13:29:46;6.68;;;1.83;;
77872;SDS011;67068;52.116;4.440;2023-03-01T13:32:24;5.25;;;1.50;;
77872;SDS011;67068;52.116;4.440;2023-03-01T13:37:42;6.25;;;1.90;;
77872;SDS011;67068;52.116;4.440;2023-03-01T13:42:53;5.05;;;1.50;;
77872;SDS011;67068;52.116;4.440;2023-03-01T13:48:24;7.47;;;1.70;;
77872;SDS011;67068;52.116;4.440;2023-03-01T13:50:51;5.20;;;1.33;;
77872;SDS011;67068;52.116;4.440;2023-03-01T13:53:18;6.32;;;1.52;;
77872;SDS011;67068;52.116;4.440;2023-03-01T13:55:44;6.72;;;1.58;;
77872;SDS011;67068;52.116;4.440;2023-03-01T13:58:23;5.85;;;1.70;;
77872;SDS011;67068;52.116;4.440;2023-03-01T14:01:00;6.03;;;1.30;;
77872;SDS011;67068;52.116;4.440;2023-03-01T14:03:25;5.38;;;1.73;;
77872;SDS011;67068;52.116;4.440;2023-03-01T14:05:58;5.00;;;1.47;;
77872;SDS011;67068;52.116;4.440;2023-03-01T14:08:25;5.68;;;1.58;;
77872;SDS011;67068;52.116;4.440;2023-03-01T14:10:54;6.72;;;1.83;;
77872;SDS011;67068;52.116;4.440;2023-03-01T14:13:29;5.63;;;1.38;;
77872;SDS011;67068;52.116;4.440;2023-03-01T14:18:43;5.50;;;1.42;;
77872;SDS011;67068;52.116;4.440;2023-03-01T14:21:13;5.68;;;1.60;;
77872;SDS011;67068;52.116;4.440;2023-03-01T14:23:39;5.50;;;1.50;;
77872;SDS011;67068;52.116;4.440;2023-03-01T14:26:07;4.93;;;1.20;;
77872;SDS011;67068;52.116;4.440;2023-03-01T14:28:33;5.13;;;1.50;;
77872;SDS011;67068;52.116;4.440;2023-03-01T14:31:03;4.63;;;1.45;;
77872;SDS011;67068;52.116;4.440;2023-03-01T14:33:29;4.57;;;1.20;;
77872;SDS011;67068;52.116;4.440;2023-03-01T14:35:56;4.65;;;1.30;;
77872;SDS011;67068;52.116;4.440;2023-03-01T14:40:55;5.72;;;1.67;;
77872;SDS011;67068;52.116;4.440;2023-03-01T14:43:22;6.60;;;2.10;;
77872;SDS011;67068;52.116;4.440;2023-03-01T14:45:49;6.32;;;2.20;;
77872;SDS011;67068;52.116;4.440;2023-03-01T14:48:14;6.20;;;2.05;;
77872;SDS011;67068;52.116;4.440;2023-03-01T14:50:41;6.25;;;2.03;;
77872;SDS011;67068;52.116;4.440;2023-03-01T14:53:07;8.82;;;3.05;;
77872;SDS011;67068;52.116;4.440;2023-03-01T14:55:40;7.32;;;2.30;;
77872;SDS011;67068;52.116;4.440;2023-03-01T14:58:11;7.90;;;2.33;;
77872;SDS011;67068;52.116;4.440;2023-03-01T15:00:37;8.15;;;2.35;;
77872;SDS011;67068;52.116;4.440;2023-03-01T15:03:07;7.22;;;2.28;;
77872;SDS011;67068;52.116;4.440;2023-03-01T15:05:38;6.65;;;2.20;;
77872;SDS011;67068;52.116;4.440;2023-03-01T15:08:04;7.10;;;2.42;;
77872;SDS011;67068;52.116;4.440;2023-03-01T15:10:34;8.00;;;2.67;;
77872;SDS011;67068;52.116;4.440;2023-03-01T15:18:03;5.87;;;1.83;;
77872;SDS011;67068;52.116;4.440;2023-03-01T15:20:29;8.20;;;2.10;;
77872;SDS011;67068;52.116;4.440;2023-03-01T15:22:57;7.28;;;2.22;;
77872;SDS011;67068;52.116;4.440;2023-03-01T15:25:23;7.18;;;2.20;;
77872;SDS011;67068;52.116;4.440;2023-03-01T15:27:50;6.10;;;2.05;;
77872;SDS011;67068;52.116;4.440;2023-03-01T15:32:44;7.85;;;2.53;;
77872;SDS011;67068;52.116;4.440;2023-03-01T15:37:54;8.40;;;3.08;;
77872;SDS011;67068;52.116;4.440;2023-03-01T15:42:45;11.45;;;4.60;;
77872;SDS011;67068;52.116;4.440;2023-03-01T15:45:20;9.77;;;4.10;;
77872;SDS011;67068;52.116;4.440;2023-03-01T15:47:50;10.43;;;3.92;;
77872;SDS011;67068;52.116;4.440;2023-03-01T15:50:26;10.52;;;5.05;;
77872;SDS011;67068;52.116;4.440;2023-03-01T15:52:52;9.85;;;4.35;;
77872;SDS011;67068;52.116;4.440;2023-03-01T15:55:22;12.80;;;4.75;;
77872;SDS011;67068;52.116;4.440;2023-03-01T15:57:48;11.13;;;4.43;;
77872;SDS011;67068;52.116;4.440;2023-03-01T16:00:13;11.43;;;4.47;;
77872;SDS011;67068;52.116;4.440;2023-03-01T16:02:40;10.95;;;4.15;;
77872;SDS011;67068;52.116;4.440;2023-03-01T16:05:08;11.40;;;4.40;;
77872;SDS011;67068;52.116;4.440;2023-03-01T16:07:37;11.30;;;5.07;;
77872;SDS011;67068;52.116;4.440;2023-03-01T16:10:04;10.90;;;4.47;;
77872;SDS011;67068;52.116;4.440;2023-03-01T16:12:30;9.63;;;3.90;;
77872;SDS011;67068;52.116;4.440;2023-03-01T16:14:55;10.73;;;4.00;;
77872;SDS011;67068;52.116;4.440;2023-03-01T16:17:22;10.20;;;4.22;;
77872;SDS011;67068;52.116;4.440;2023-03-01T16:19:47;8.80;;;3.43;;
77872;SDS011;67068;52.116;4.440;2023-03-01T16:22:12;10.67;;;3.70;;
77872;SDS011;67068;52.116;4.440;2023-03-01T16:24:38;19.03;;;6.27;;
77872;SDS011;67068;52.116;4.440;2023-03-01T16:27:03;31.30;;;11.67;;
77872;SDS011;67068;52.116;4.440;2023-03-01T16:29:28;29.83;;;9.53;;
77872;SDS011;67068;52.116;4.440;2023-03-01T16:31:54;28.90;;;9.07;;
77872;SDS011;67068;52.116;4.440;2023-03-01T16:34:19;29.40;;;9.73;;
77872;SDS011;67068;52.116;4.440;2023-03-01T16:36:46;35.00;;;10.27;;
77872;SDS011;67068;52.116;4.440;2023-03-01T16:39:12;29.73;;;7.80;;
77872;SDS011;67068;52.116;4.440;2023-03-01T16:41:37;38.33;;;11.40;;
77872;SDS011;67068;52.116;4.440;2023-03-01T16:44:02;34.40;;;11.13;;
77872;SDS011;67068;52.116;4.440;2023-03-01T16:46:28;41.27;;;11.30;;
77872;SDS011;67068;52.116;4.440;2023-03-01T16:48:54;41.30;;;10.75;;
77872;SDS011;67068;52.116;4.440;2023-03-01T16:51:19;36.75;;;10.52;;